sensor_id;sensor_type;location;lat;lon;timestamp;P1;durP1;ratioP1;P2;durP2;ratioP2
37383;SDS011;23258;49.718;11.082;2023-04-03T00:00:13;1.43;;;1.43;;
37383;SDS011;23258;49.718;11.082;2023-04-03T00:02:43;1.70;;;1.63;;
37383;SDS011;23258;49.718;11.082;2023-04-03T00:05:13;1.10;;;1.10;;
37383;SDS011;23258;49.718;11.082;2023-04-03T00:07:45;1.27;;;1.27;;
37383;SDS011;23258;49.718;11.082;2023-04-03T00:10:16;1.75;;;1.30;;
37383;SDS011;23258;49.718;11.082;2023-04-03T00:12:46;1.87;;;1.50;;
37383;SDS011;23258;49.718;11.082;2023-04-03T00:15:16;1.70;;;1.53;;
37383;SDS011;23258;49.718;11.082;2023-04-03T00:17:45;1.63;;;1.53;;
37383;SDS011;23258;49.718;11.082;2023-04-03T00:20:15;1.50;;;1.43;;
37383;SDS011;23258;49.718;11.082;2023-04-03T00:22:47;1.40;;;1.37;;
37383;SDS011;23258;49.718;11.082;2023-04-03T00:25:17;1.40;;;1.40;;
37383;SDS011;23258;49.718;11.082;2023-04-03T00:27:47;1.50;;;1.50;;
37383;SDS011;23258;49.718;11.082;2023-04-03T00:30:17;2.63;;;1.67;;
37383;SDS011;23258;49.718;11.082;2023-04-03T00:32:48;1.47;;;1.37;;
37383;SDS011;23258;49.718;11.082;2023-04-03T00:35:18;1.43;;;1.30;;
37383;SDS011;23258;49.718;11.082;2023-04-03T00:37:51;1.00;;;1.00;;
37383;SDS011;23258;49.718;11.082;2023-04-03T00:40:22;1.00;;;1.00;;
37383;SDS011;23258;49.718;11.082;2023-04-03T00:42:54;1.60;;;1.43;;
37383;SDS011;23258;49.718;11.082;2023-04-03T00:45:27;0.90;;;0.90;;
37383;SDS011;23258;49.718;11.082;2023-04-03T00:47:57;1.20;;;1.20;;
37383;SDS011;23258;49.718;11.082;2023-04-03T00:50:28;2.77;;;1.40;;
37383;SDS011;23258;49.718;11.082;2023-04-03T00:53:01;1.40;;;1.40;;
37383;SDS011;23258;49.718;11.082;2023-04-03T00:55:31;1.33;;;1.33;;
37383;SDS011;23258;49.718;11.082;2023-04-03T00:58:01;1.17;;;1.17;;
37383;SDS011;23258;49.718;11.082;2023-04-03T01:00:31;2.30;;;1.53;;
37383;SDS011;23258;49.718;11.082;2023-04-03T01:03:01;1.47;;;1.37;;
37383;SDS011;23258;49.718;11.082;2023-04-03T01:05:32;1.47;;;1.37;;
37383;SDS011;23258;49.718;11.082;2023-04-03T01:08:04;1.30;;;1.30;;
37383;SDS011;23258;49.718;11.082;2023-04-03T01:10:34;1.80;;;1.70;;
37383;SDS011;23258;49.718;11.082;2023-04-03T01:13:16;1.30;;;1.30;;
37383;SDS011;23258;49.718;11.082;2023-04-03T01:15:47;1.53;;;1.43;;
37383;SDS011;23258;49.718;11.082;2023-04-03T01:18:16;1.90;;;1.55;;
37383;SDS011;23258;49.718;11.082;2023-04-03T01:20:57;1.37;;;1.30;;
37383;SDS011;23258;49.718;11.082;2023-04-03T01:23:39;1.53;;;1.50;;
37383;SDS011;23258;49.718;11.082;2023-04-03T01:26:11;2.60;;;1.57;;
37383;SDS011;23258;49.718;11.082;2023-04-03T01:28:41;1.30;;;1.30;;
37383;SDS011;23258;49.718;11.082;2023-04-03T01:31:13;1.10;;;1.10;;
37383;SDS011;23258;49.718;11.082;2023-04-03T01:33:48;1.27;;;1.23;;
37383;SDS011;23258;49.718;11.082;2023-04-03T01:36:19;1.20;;;1.20;;
37383;SDS011;23258;49.718;11.082;2023-04-03T01:38:51;1.40;;;1.37;;
37383;SDS011;23258;49.718;11.082;2023-04-03T01:41:20;1.23;;;1.20;;
37383;SDS011;23258;49.718;11.082;2023-04-03T01:43:53;1.50;;;1.40;;
37383;SDS011;23258;49.718;11.082;2023-04-03T01:46:23;1.20;;;1.20;;
37383;SDS011;23258;49.718;11.082;2023-04-03T01:48:56;1.50;;;1.40;;
37383;SDS011;23258;49.718;11.082;2023-04-03T01:51:25;4.07;;;1.47;;
37383;SDS011;23258;49.718;11.082;2023-04-03T01:53:55;1.60;;;1.50;;
37383;SDS011;23258;49.718;11.082;2023-04-03T01:56:25;1.87;;;1.77;;
37383;SDS011;23258;49.718;11.082;2023-04-03T01:58:56;1.20;;;1.20;;
37383;SDS011;23258;49.718;11.082;2023-04-03T02:01:25;1.50;;;1.40;;
37383;SDS011;23258;49.718;11.082;2023-04-03T02:03:58;1.50;;;1.40;;
37383;SDS011;23258;49.718;11.082;2023-04-03T02:06:27;1.83;;;1.08;;
37383;SDS011;23258;49.718;11.082;2023-04-03T02:08:57;1.20;;;1.20;;
37383;SDS011;23258;49.718;11.082;2023-04-03T02:11:27;4.17;;;1.50;;
37383;SDS011;23258;49.718;11.082;2023-04-03T02:13:56;2.93;;;1.73;;
37383;SDS011;23258;49.718;11.082;2023-04-03T02:16:26;1.83;;;1.73;;
37383;SDS011;23258;49.718;11.082;2023-04-03T02:18:58;1.77;;;1.67;;
37383;SDS011;23258;49.718;11.082;2023-04-03T02:21:29;1.73;;;1.63;;
37383;SDS011;23258;49.718;11.082;2023-04-03T02:23:59;1.80;;;1.70;;
37383;SDS011;23258;49.718;11.082;2023-04-03T02:26:29;1.73;;;1.67;;
37383;SDS011;23258;49.718;11.082;2023-04-03T02:28:58;1.83;;;1.73;;
37383;SDS011;23258;49.718;11.082;2023-04-03T02:31:29;2.13;;;2.03;;
37383;SDS011;23258;49.718;11.082;2023-04-03T02:34:03;2.27;;;2.17;;
37383;SDS011;23258;49.718;11.082;2023-04-03T02:36:34;2.03;;;1.90;;
37383;SDS011;23258;49.718;11.082;2023-04-03T02:39:07;2.33;;;2.23;;
37383;SDS011;23258;49.718;11.082;2023-04-03T02:41:38;1.73;;;1.63;;
37383;SDS011;23258;49.718;11.082;2023-04-03T02:44:13;2.05;;;1.95;;
37383;SDS011;23258;49.718;11.082;2023-04-03T02:46:42;2.17;;;2.08;;
37383;SDS011;23258;49.718;11.082;2023-04-03T02:49:15;2.33;;;2.00;;
37383;SDS011;23258;49.718;11.082;2023-04-03T02:51:45;2.17;;;1.90;;
37383;SDS011;23258;49.718;11.082;2023-04-03T02:54:15;1.73;;;1.63;;
37383;SDS011;23258;49.718;11.082;2023-04-03T02:56:49;2.30;;;2.20;;
37383;SDS011;23258;49.718;11.082;2023-04-03T02:59:18;1.97;;;1.87;;
37383;SDS011;23258;49.718;11.082;2023-04-03T03:01:48;2.50;;;2.30;;
37383;SDS011;23258;49.718;11.082;2023-04-03T03:04:20;1.90;;;1.73;;
37383;SDS011;23258;49.718;11.082;2023-04-03T03:06:51;2.60;;;2.43;;
37383;SDS011;23258;49.718;11.082;2023-04-03T03:09:21;2.03;;;1.92;;
37383;SDS011;23258;49.718;11.082;2023-04-03T03:11:52;2.03;;;1.92;;
37383;SDS011;23258;49.718;11.082;2023-04-03T03:14:21;2.03;;;1.93;;
37383;SDS011;23258;49.718;11.082;2023-04-03T03:16:51;2.37;;;2.27;;
37383;SDS011;23258;49.718;11.082;2023-04-03T03:19:24;1.93;;;1.83;;
37383;SDS011;23258;49.718;11.082;2023-04-03T03:21:54;2.43;;;2.23;;
37383;SDS011;23258;49.718;11.082;2023-04-03T03:24:23;2.83;;;2.50;;
37383;SDS011;23258;49.718;11.082;2023-04-03T03:26:53;2.10;;;2.00;;
37383;SDS011;23258;49.718;11.082;2023-04-03T03:29:23;3.00;;;2.17;;
37383;SDS011;23258;49.718;11.082;2023-04-03T03:31:52;2.10;;;2.00;;
37383;SDS011;23258;49.718;11.082;2023-04-03T03:34:24;3.03;;;2.57;;
37383;SDS011;23258;49.718;11.082;2023-04-03T03:36:54;4.60;;;2.43;;
37383;SDS011;23258;49.718;11.082;2023-04-03T03:39:24;2.20;;;2.10;;
37383;SDS011;23258;49.718;11.082;2023-04-03T03:41:53;2.33;;;2.13;;
37383;SDS011;23258;49.718;11.082;2023-04-03T03:44:23;2.00;;;1.90;;
37383;SDS011;23258;49.718;11.082;2023-04-03T03:46:56;2.70;;;2.50;;
37383;SDS011;23258;49.718;11.082;2023-04-03T03:49:28;3.83;;;2.40;;
37383;SDS011;23258;49.718;11.082;2023-04-03T03:52:00;2.73;;;2.20;;
37383;SDS011;23258;49.718;11.082;2023-04-03T03:54:29;2.20;;;2.00;;
37383;SDS011;23258;49.718;11.082;2023-04-03T03:56:59;2.20;;;2.00;;
37383;SDS011;23258;49.718;11.082;2023-04-03T03:59:29;2.27;;;2.10;;
37383;SDS011;23258;49.718;11.082;2023-04-03T04:01:59;4.40;;;2.60;;
37383;SDS011;23258;49.718;11.082;2023-04-03T04:04:31;2.50;;;2.37;;
37383;SDS011;23258;49.718;11.082;2023-04-03T04:07:01;2.13;;;2.03;;
37383;SDS011;23258;49.718;11.082;2023-04-03T04:09:32;4.97;;;2.57;;
37383;SDS011;23258;49.718;11.082;2023-04-03T04:12:02;2.57;;;2.37;;
37383;SDS011;23258;49.718;11.082;2023-04-03T04:14:32;2.30;;;2.20;;
37383;SDS011;23258;49.718;11.082;2023-04-03T04:17:03;2.30;;;2.20;;
37383;SDS011;23258;49.718;11.082;2023-04-03T04:19:37;3.57;;;2.57;;
37383;SDS011;23258;49.718;11.082;2023-04-03T04:22:07;2.50;;;2.30;;
37383;SDS011;23258;49.718;11.082;2023-04-03T04:24:37;3.57;;;2.33;;
37383;SDS011;23258;49.718;11.082;2023-04-03T04:27:07;2.40;;;2.20;;
37383;SDS011;23258;49.718;11.082;2023-04-03T04:29:37;2.10;;;1.90;;
37383;SDS011;23258;49.718;11.082;2023-04-03T04:32:08;4.03;;;2.40;;
37383;SDS011;23258;49.718;11.082;2023-04-03T04:34:40;2.07;;;1.97;;
37383;SDS011;23258;49.718;11.082;2023-04-03T04:37:10;2.40;;;2.20;;
37383;SDS011;23258;49.718;11.082;2023-04-03T04:39:40;3.05;;;1.90;;
37383;SDS011;23258;49.718;11.082;2023-04-03T04:42:09;3.10;;;2.63;;
37383;SDS011;23258;49.718;11.082;2023-04-03T04:44:42;4.00;;;2.20;;
37383;SDS011;23258;49.718;11.082;2023-04-03T04:47:13;3.03;;;2.27;;
37383;SDS011;23258;49.718;11.082;2023-04-03T04:49:46;2.37;;;2.27;;
37383;SDS011;23258;49.718;11.082;2023-04-03T04:52:17;2.00;;;1.90;;
37383;SDS011;23258;49.718;11.082;2023-04-03T04:54:46;2.23;;;2.13;;
37383;SDS011;23258;49.718;11.082;2023-04-03T04:57:16;2.10;;;1.90;;
37383;SDS011;23258;49.718;11.082;2023-04-03T04:59:46;2.30;;;2.10;;
37383;SDS011;23258;49.718;11.082;2023-04-03T05:02:16;2.83;;;2.10;;
37383;SDS011;23258;49.718;11.082;2023-04-03T05:04:48;1.83;;;1.73;;
37383;SDS011;23258;49.718;11.082;2023-04-03T05:07:25;2.40;;;1.70;;
37383;SDS011;23258;49.718;11.082;2023-04-03T05:09:56;2.33;;;2.13;;
37383;SDS011;23258;49.718;11.082;2023-04-03T05:12:27;3.23;;;2.17;;
37383;SDS011;23258;49.718;11.082;2023-04-03T05:14:59;4.30;;;2.33;;
37383;SDS011;23258;49.718;11.082;2023-04-03T05:17:30;2.13;;;2.03;;
37383;SDS011;23258;49.718;11.082;2023-04-03T05:20:04;2.90;;;2.23;;
37383;SDS011;23258;49.718;11.082;2023-04-03T05:22:34;2.50;;;2.10;;
37383;SDS011;23258;49.718;11.082;2023-04-03T05:25:08;4.03;;;2.00;;
37383;SDS011;23258;49.718;11.082;2023-04-03T05:27:41;1.40;;;1.40;;
37383;SDS011;23258;49.718;11.082;2023-04-03T05:30:11;2.10;;;2.00;;
37383;SDS011;23258;49.718;11.082;2023-04-03T05:32:41;2.00;;;1.90;;
37383;SDS011;23258;49.718;11.082;2023-04-03T05:35:19;2.60;;;2.20;;
37383;SDS011;23258;49.718;11.082;2023-04-03T05:37:52;1.90;;;1.80;;
37383;SDS011;23258;49.718;11.082;2023-04-03T05:40:22;4.70;;;2.53;;
37383;SDS011;23258;49.718;11.082;2023-04-03T05:42:55;4.27;;;2.23;;
37383;SDS011;23258;49.718;11.082;2023-04-03T05:45:28;2.40;;;2.20;;
37383;SDS011;23258;49.718;11.082;2023-04-03T05:47:58;3.93;;;2.03;;
37383;SDS011;23258;49.718;11.082;2023-04-03T05:50:32;2.20;;;2.10;;
37383;SDS011;23258;49.718;11.082;2023-04-03T05:53:13;2.63;;;2.00;;
37383;SDS011;23258;49.718;11.082;2023-04-03T05:55:45;4.90;;;1.70;;
37383;SDS011;23258;49.718;11.082;2023-04-03T05:58:15;1.67;;;1.57;;
37383;SDS011;23258;49.718;11.082;2023-04-03T06:00:46;1.77;;;1.67;;
37383;SDS011;23258;49.718;11.082;2023-04-03T06:03:16;2.63;;;2.43;;
37383;SDS011;23258;49.718;11.082;2023-04-03T06:05:49;2.23;;;2.03;;
37383;SDS011;23258;49.718;11.082;2023-04-03T06:08:18;2.17;;;1.97;;
37383;SDS011;23258;49.718;11.082;2023-04-03T06:10:49;4.10;;;2.13;;
37383;SDS011;23258;49.718;11.082;2023-04-03T06:13:19;2.67;;;2.47;;
37383;SDS011;23258;49.718;11.082;2023-04-03T06:15:50;2.50;;;2.30;;
37383;SDS011;23258;49.718;11.082;2023-04-03T06:18:20;2.30;;;2.10;;
37383;SDS011;23258;49.718;11.082;2023-04-03T06:20:52;2.93;;;2.07;;
37383;SDS011;23258;49.718;11.082;2023-04-03T06:23:22;2.10;;;2.00;;
37383;SDS011;23258;49.718;11.082;2023-04-03T06:25:52;3.37;;;2.17;;
37383;SDS011;23258;49.718;11.082;2023-04-03T06:28:21;2.40;;;2.20;;
37383;SDS011;23258;49.718;11.082;2023-04-03T06:30:52;1.83;;;1.73;;
37383;SDS011;23258;49.718;11.082;2023-04-03T06:33:22;2.73;;;2.53;;
37383;SDS011;23258;49.718;11.082;2023-04-03T06:35:58;2.53;;;2.33;;
37383;SDS011;23258;49.718;11.082;2023-04-03T06:38:28;2.37;;;2.17;;
37383;SDS011;23258;49.718;11.082;2023-04-03T06:40:58;3.43;;;2.60;;
37383;SDS011;23258;49.718;11.082;2023-04-03T06:43:28;2.35;;;2.15;;
37383;SDS011;23258;49.718;11.082;2023-04-03T06:46:00;4.70;;;2.37;;
37383;SDS011;23258;49.718;11.082;2023-04-03T06:48:30;2.67;;;2.47;;
37383;SDS011;23258;49.718;11.082;2023-04-03T06:51:02;4.30;;;2.50;;
37383;SDS011;23258;49.718;11.082;2023-04-03T06:53:32;2.63;;;2.47;;
37383;SDS011;23258;49.718;11.082;2023-04-03T06:56:02;2.63;;;2.43;;
37383;SDS011;23258;49.718;11.082;2023-04-03T06:58:31;2.63;;;2.43;;
37383;SDS011;23258;49.718;11.082;2023-04-03T07:01:01;2.40;;;2.25;;
37383;SDS011;23258;49.718;11.082;2023-04-03T07:03:31;3.30;;;2.45;;
37383;SDS011;23258;49.718;11.082;2023-04-03T07:06:05;2.90;;;2.70;;
37383;SDS011;23258;49.718;11.082;2023-04-03T07:08:35;5.00;;;3.78;;
37383;SDS011;23258;49.718;11.082;2023-04-03T07:11:05;2.90;;;2.70;;
37383;SDS011;23258;49.718;11.082;2023-04-03T07:13:35;3.25;;;2.50;;
37383;SDS011;23258;49.718;11.082;2023-04-03T07:16:05;2.20;;;2.10;;
37383;SDS011;23258;49.718;11.082;2023-04-03T07:18:35;2.58;;;2.10;;
37383;SDS011;23258;49.718;11.082;2023-04-03T07:21:07;2.78;;;2.35;;
37383;SDS011;23258;49.718;11.082;2023-04-03T07:23:37;3.10;;;2.38;;
37383;SDS011;23258;49.718;11.082;2023-04-03T07:26:07;2.30;;;2.15;;
37383;SDS011;23258;49.718;11.082;2023-04-03T07:28:37;2.67;;;1.98;;
37383;SDS011;23258;49.718;11.082;2023-04-03T07:31:10;3.00;;;2.63;;
37383;SDS011;23258;49.718;11.082;2023-04-03T07:33:40;5.25;;;2.22;;
37383;SDS011;23258;49.718;11.082;2023-04-03T07:36:14;4.30;;;2.60;;
37383;SDS011;23258;49.718;11.082;2023-04-03T07:38:44;3.00;;;2.30;;
37383;SDS011;23258;49.718;11.082;2023-04-03T07:41:15;2.40;;;2.22;;
37383;SDS011;23258;49.718;11.082;2023-04-03T07:43:45;3.67;;;2.25;;
37383;SDS011;23258;49.718;11.082;2023-04-03T07:46:16;3.72;;;2.80;;
37383;SDS011;23258;49.718;11.082;2023-04-03T07:48:47;2.30;;;2.10;;
37383;SDS011;23258;49.718;11.082;2023-04-03T07:51:19;3.25;;;2.50;;
37383;SDS011;23258;49.718;11.082;2023-04-03T07:53:50;2.80;;;2.55;;
37383;SDS011;23258;49.718;11.082;2023-04-03T07:56:20;5.65;;;2.25;;
37383;SDS011;23258;49.718;11.082;2023-04-03T07:58:50;2.03;;;1.92;;
37383;SDS011;23258;49.718;11.082;2023-04-03T08:01:20;5.15;;;2.42;;
37383;SDS011;23258;49.718;11.082;2023-04-03T08:03:50;2.50;;;2.30;;
37383;SDS011;23258;49.718;11.082;2023-04-03T08:06:22;1.92;;;1.83;;
37383;SDS011;23258;49.718;11.082;2023-04-03T08:09:11;4.35;;;2.00;;
37383;SDS011;23258;49.718;11.082;2023-04-03T08:11:42;2.90;;;2.28;;
37383;SDS011;23258;49.718;11.082;2023-04-03T08:14:12;2.05;;;1.95;;
37383;SDS011;23258;49.718;11.082;2023-04-03T08:16:44;4.60;;;2.65;;
37383;SDS011;23258;49.718;11.082;2023-04-03T08:19:14;2.30;;;2.10;;
37383;SDS011;23258;49.718;11.082;2023-04-03T08:21:54;3.78;;;1.92;;
37383;SDS011;23258;49.718;11.082;2023-04-03T08:24:25;2.35;;;2.15;;
37383;SDS011;23258;49.718;11.082;2023-04-03T08:26:54;2.42;;;1.98;;
37383;SDS011;23258;49.718;11.082;2023-04-03T08:29:24;2.35;;;2.15;;
37383;SDS011;23258;49.718;11.082;2023-04-03T08:31:54;2.13;;;1.88;;
37383;SDS011;23258;49.718;11.082;2023-04-03T08:34:24;3.03;;;2.30;;
37383;SDS011;23258;49.718;11.082;2023-04-03T08:36:56;3.42;;;2.10;;
37383;SDS011;23258;49.718;11.082;2023-04-03T08:39:26;2.38;;;1.73;;
37383;SDS011;23258;49.718;11.082;2023-04-03T08:41:57;3.28;;;2.05;;
37383;SDS011;23258;49.718;11.082;2023-04-03T08:44:31;1.88;;;1.77;;
37383;SDS011;23258;49.718;11.082;2023-04-03T08:47:09;1.83;;;1.73;;
37383;SDS011;23258;49.718;11.082;2023-04-03T08:49:41;2.40;;;2.20;;
37383;SDS011;23258;49.718;11.082;2023-04-03T08:52:17;1.85;;;1.75;;
37383;SDS011;23258;49.718;11.082;2023-04-03T08:54:49;2.97;;;1.75;;
37383;SDS011;23258;49.718;11.082;2023-04-03T08:57:23;2.28;;;2.13;;
37383;SDS011;23258;49.718;11.082;2023-04-03T08:59:57;2.17;;;1.98;;
37383;SDS011;23258;49.718;11.082;2023-04-03T09:02:28;1.58;;;1.50;;
37383;SDS011;23258;49.718;11.082;2023-04-03T09:05:01;1.73;;;1.63;;
37383;SDS011;23258;49.718;11.082;2023-04-03T09:07:35;2.63;;;2.03;;
37383;SDS011;23258;49.718;11.082;2023-04-03T09:10:07;4.03;;;1.67;;
37383;SDS011;23258;49.718;11.082;2023-04-03T09:12:39;1.58;;;1.48;;
37383;SDS011;23258;49.718;11.082;2023-04-03T09:15:15;1.70;;;1.60;;
37383;SDS011;23258;49.718;11.082;2023-04-03T09:18:03;1.27;;;1.17;;
37383;SDS011;23258;49.718;11.082;2023-04-03T09:20:39;1.90;;;1.80;;
37383;SDS011;23258;49.718;11.082;2023-04-03T09:23:17;1.42;;;1.33;;
37383;SDS011;23258;49.718;11.082;2023-04-03T09:25:47;1.13;;;1.13;;
37383;SDS011;23258;49.718;11.082;2023-04-03T09:28:18;1.52;;;1.42;;
37383;SDS011;23258;49.718;11.082;2023-04-03T09:30:48;1.95;;;1.70;;
37383;SDS011;23258;49.718;11.082;2023-04-03T09:33:17;2.72;;;1.40;;
37383;SDS011;23258;49.718;11.082;2023-04-03T09:35:47;1.40;;;1.30;;
37383;SDS011;23258;49.718;11.082;2023-04-03T09:38:21;3.17;;;1.33;;
37383;SDS011;23258;49.718;11.082;2023-04-03T09:41:02;1.58;;;1.48;;
37383;SDS011;23258;49.718;11.082;2023-04-03T09:43:33;1.45;;;1.45;;
37383;SDS011;23258;49.718;11.082;2023-04-03T09:46:25;1.27;;;1.27;;
37383;SDS011;23258;49.718;11.082;2023-04-03T09:48:55;2.15;;;1.63;;
37383;SDS011;23258;49.718;11.082;2023-04-03T09:51:34;2.90;;;1.60;;
37383;SDS011;23258;49.718;11.082;2023-04-03T09:56:52;2.22;;;1.80;;
37383;SDS011;23258;49.718;11.082;2023-04-03T09:59:22;2.20;;;1.35;;
37383;SDS011;23258;49.718;11.082;2023-04-03T10:01:57;1.48;;;1.38;;
37383;SDS011;23258;49.718;11.082;2023-04-03T10:04:36;2.47;;;1.75;;
37383;SDS011;23258;49.718;11.082;2023-04-03T10:09:54;1.63;;;1.52;;
37383;SDS011;23258;49.718;11.082;2023-04-03T10:12:26;1.65;;;1.55;;
37383;SDS011;23258;49.718;11.082;2023-04-03T10:14:56;1.90;;;1.80;;
37383;SDS011;23258;49.718;11.082;2023-04-03T10:17:33;2.05;;;1.65;;
37383;SDS011;23258;49.718;11.082;2023-04-03T10:20:07;1.77;;;1.67;;
37383;SDS011;23258;49.718;11.082;2023-04-03T10:22:40;2.67;;;1.67;;
37383;SDS011;23258;49.718;11.082;2023-04-03T10:25:15;1.40;;;1.40;;
37383;SDS011;23258;49.718;11.082;2023-04-03T10:27:52;1.50;;;1.40;;
37383;SDS011;23258;49.718;11.082;2023-04-03T10:30:30;2.17;;;2.08;;
37383;SDS011;23258;49.718;11.082;2023-04-03T10:33:05;1.33;;;1.33;;
37383;SDS011;23258;49.718;11.082;2023-04-03T10:35:42;1.75;;;1.65;;
37383;SDS011;23258;49.718;11.082;2023-04-03T10:38:15;2.00;;;1.90;;
37383;SDS011;23258;49.718;11.082;2023-04-03T10:40:51;2.15;;;1.67;;
37383;SDS011;23258;49.718;11.082;2023-04-03T10:43:25;1.98;;;1.67;;
37383;SDS011;23258;49.718;11.082;2023-04-03T10:46:00;1.35;;;1.35;;
37383;SDS011;23258;49.718;11.082;2023-04-03T10:48:38;1.30;;;1.30;;
37383;SDS011;23258;49.718;11.082;2023-04-03T10:51:12;2.00;;;1.90;;
37383;SDS011;23258;49.718;11.082;2023-04-03T10:53:44;1.58;;;1.48;;
37383;SDS011;23258;49.718;11.082;2023-04-03T10:56:20;2.40;;;1.90;;
37383;SDS011;23258;49.718;11.082;2023-04-03T10:58:56;3.50;;;1.40;;
37383;SDS011;23258;49.718;11.082;2023-04-03T11:01:29;1.75;;;1.65;;
37383;SDS011;23258;49.718;11.082;2023-04-03T11:04:01;2.70;;;1.40;;
37383;SDS011;23258;49.718;11.082;2023-04-03T11:06:35;1.73;;;1.63;;
37383;SDS011;23258;49.718;11.082;2023-04-03T11:09:07;1.42;;;1.33;;
37383;SDS011;23258;49.718;11.082;2023-04-03T11:11:40;1.20;;;1.20;;
37383;SDS011;23258;49.718;11.082;2023-04-03T11:14:15;1.50;;;1.40;;
37383;SDS011;23258;49.718;11.082;2023-04-03T11:16:47;2.97;;;1.38;;
37383;SDS011;23258;49.718;11.082;2023-04-03T11:19:20;3.30;;;1.38;;
37383;SDS011;23258;49.718;11.082;2023-04-03T11:21:51;1.38;;;1.38;;
37383;SDS011;23258;49.718;11.082;2023-04-03T11:24:24;1.20;;;1.20;;
37383;SDS011;23258;49.718;11.082;2023-04-03T11:26:55;1.92;;;1.77;;
37383;SDS011;23258;49.718;11.082;2023-04-03T11:29:29;2.33;;;1.48;;
37383;SDS011;23258;49.718;11.082;2023-04-03T11:32:09;1.58;;;1.48;;
37383;SDS011;23258;49.718;11.082;2023-04-03T11:34:41;1.98;;;1.77;;
37383;SDS011;23258;49.718;11.082;2023-04-03T11:37:13;1.48;;;1.30;;
37383;SDS011;23258;49.718;11.082;2023-04-03T11:39:47;1.23;;;1.23;;
37383;SDS011;23258;49.718;11.082;2023-04-03T11:42:23;2.17;;;1.77;;
37383;SDS011;23258;49.718;11.082;2023-04-03T11:47:48;2.10;;;1.73;;
37383;SDS011;23258;49.718;11.082;2023-04-03T11:50:31;2.05;;;1.67;;
37383;SDS011;23258;49.718;11.082;2023-04-03T11:53:03;1.20;;;1.20;;
37383;SDS011;23258;49.718;11.082;2023-04-03T11:58:31;2.00;;;1.60;;
37383;SDS011;23258;49.718;11.082;2023-04-03T12:01:03;1.25;;;1.17;;
37383;SDS011;23258;49.718;11.082;2023-04-03T12:09:21;1.55;;;1.45;;
37383;SDS011;23258;49.718;11.082;2023-04-03T12:11:52;2.38;;;1.27;;
37383;SDS011;23258;49.718;11.082;2023-04-03T12:14:22;2.25;;;1.23;;
37383;SDS011;23258;49.718;11.082;2023-04-03T12:16:52;1.25;;;1.15;;
37383;SDS011;23258;49.718;11.082;2023-04-03T12:19:30;1.70;;;1.60;;
37383;SDS011;23258;49.718;11.082;2023-04-03T12:22:12;2.30;;;1.77;;
37383;SDS011;23258;49.718;11.082;2023-04-03T12:24:45;1.80;;;1.38;;
37383;SDS011;23258;49.718;11.082;2023-04-03T12:30:04;2.45;;;1.98;;
37383;SDS011;23258;49.718;11.082;2023-04-03T12:35:36;1.08;;;1.05;;
37383;SDS011;23258;49.718;11.082;2023-04-03T12:38:14;1.42;;;1.00;;
37383;SDS011;23258;49.718;11.082;2023-04-03T12:40:51;1.45;;;1.20;;
37383;SDS011;23258;49.718;11.082;2023-04-03T12:43:29;1.27;;;1.25;;
37383;SDS011;23258;49.718;11.082;2023-04-03T12:46:02;1.45;;;1.20;;
37383;SDS011;23258;49.718;11.082;2023-04-03T12:48:33;1.33;;;1.10;;
37383;SDS011;23258;49.718;11.082;2023-04-03T12:51:07;1.38;;;1.33;;
37383;SDS011;23258;49.718;11.082;2023-04-03T12:53:37;1.17;;;1.13;;
37383;SDS011;23258;49.718;11.082;2023-04-03T12:56:20;1.05;;;1.05;;
37383;SDS011;23258;49.718;11.082;2023-04-03T12:58:51;0.90;;;0.90;;
37383;SDS011;23258;49.718;11.082;2023-04-03T13:01:22;1.23;;;1.13;;
37383;SDS011;23258;49.718;11.082;2023-04-03T13:03:53;1.05;;;1.00;;
37383;SDS011;23258;49.718;11.082;2023-04-03T13:06:24;2.85;;;1.40;;
37383;SDS011;23258;49.718;11.082;2023-04-03T13:08:56;3.20;;;1.23;;
37383;SDS011;23258;49.718;11.082;2023-04-03T13:11:30;1.58;;;0.95;;
37383;SDS011;23258;49.718;11.082;2023-04-03T13:14:02;1.52;;;1.42;;
37383;SDS011;23258;49.718;11.082;2023-04-03T13:16:33;1.45;;;1.30;;
37383;SDS011;23258;49.718;11.082;2023-04-03T13:19:04;1.17;;;1.02;;
37383;SDS011;23258;49.718;11.082;2023-04-03T13:21:33;1.25;;;1.20;;
37383;SDS011;23258;49.718;11.082;2023-04-03T13:24:04;1.27;;;1.17;;
37383;SDS011;23258;49.718;11.082;2023-04-03T13:26:44;1.48;;;1.38;;
37383;SDS011;23258;49.718;11.082;2023-04-03T13:29:18;1.50;;;1.40;;
37383;SDS011;23258;49.718;11.082;2023-04-03T13:31:57;5.00;;;1.33;;
37383;SDS011;23258;49.718;11.082;2023-04-03T13:34:34;2.13;;;1.60;;
37383;SDS011;23258;49.718;11.082;2023-04-03T13:37:04;2.30;;;1.15;;
37383;SDS011;23258;49.718;11.082;2023-04-03T13:39:35;3.67;;;1.45;;
37383;SDS011;23258;49.718;11.082;2023-04-03T13:42:17;1.15;;;1.15;;
37383;SDS011;23258;49.718;11.082;2023-04-03T13:47:37;1.23;;;1.20;;
37383;SDS011;23258;49.718;11.082;2023-04-03T13:50:15;1.33;;;1.05;;
37383;SDS011;23258;49.718;11.082;2023-04-03T13:52:46;1.00;;;1.00;;
37383;SDS011;23258;49.718;11.082;2023-04-03T13:55:17;0.98;;;0.93;;
37383;SDS011;23258;49.718;11.082;2023-04-03T13:57:56;1.23;;;1.15;;
37383;SDS011;23258;49.718;11.082;2023-04-03T14:00:28;1.63;;;1.13;;
37383;SDS011;23258;49.718;11.082;2023-04-03T14:02:58;1.55;;;1.30;;
37383;SDS011;23258;49.718;11.082;2023-04-03T14:05:29;1.15;;;1.05;;
37383;SDS011;23258;49.718;11.082;2023-04-03T14:07:58;1.20;;;1.10;;
37383;SDS011;23258;49.718;11.082;2023-04-03T14:10:29;1.08;;;0.90;;
37383;SDS011;23258;49.718;11.082;2023-04-03T14:13:01;2.40;;;1.08;;
37383;SDS011;23258;49.718;11.082;2023-04-03T14:15:31;1.10;;;1.00;;
37383;SDS011;23258;49.718;11.082;2023-04-03T14:18:02;1.75;;;1.30;;
37383;SDS011;23258;49.718;11.082;2023-04-03T14:20:33;1.52;;;1.20;;
37383;SDS011;23258;49.718;11.082;2023-04-03T14:23:03;0.85;;;0.85;;
37383;SDS011;23258;49.718;11.082;2023-04-03T14:25:33;1.05;;;1.02;;
37383;SDS011;23258;49.718;11.082;2023-04-03T14:28:12;0.93;;;0.93;;
37383;SDS011;23258;49.718;11.082;2023-04-03T14:30:43;1.33;;;1.23;;
37383;SDS011;23258;49.718;11.082;2023-04-03T14:33:14;1.38;;;1.27;;
37383;SDS011;23258;49.718;11.082;2023-04-03T14:35:45;1.33;;;1.23;;
37383;SDS011;23258;49.718;11.082;2023-04-03T14:38:20;2.13;;;0.98;;
37383;SDS011;23258;49.718;11.082;2023-04-03T14:40:50;1.45;;;1.35;;
37383;SDS011;23258;49.718;11.082;2023-04-03T14:43:27;1.85;;;1.25;;
37383;SDS011;23258;49.718;11.082;2023-04-03T14:45:57;2.50;;;1.08;;
37383;SDS011;23258;49.718;11.082;2023-04-03T14:48:27;1.23;;;1.10;;
37383;SDS011;23258;49.718;11.082;2023-04-03T14:50:57;1.50;;;1.40;;
37383;SDS011;23258;49.718;11.082;2023-04-03T14:53:31;0.98;;;0.95;;
37383;SDS011;23258;49.718;11.082;2023-04-03T14:56:08;1.38;;;1.05;;
37383;SDS011;23258;49.718;11.082;2023-04-03T14:58:42;1.55;;;1.45;;
37383;SDS011;23258;49.718;11.082;2023-04-03T15:01:16;1.17;;;1.17;;
37383;SDS011;23258;49.718;11.082;2023-04-03T15:03:46;1.10;;;1.00;;
37383;SDS011;23258;49.718;11.082;2023-04-03T15:06:16;1.77;;;1.67;;
37383;SDS011;23258;49.718;11.082;2023-04-03T15:08:46;1.02;;;1.02;;
37383;SDS011;23258;49.718;11.082;2023-04-03T15:11:16;0.98;;;0.98;;
37383;SDS011;23258;49.718;11.082;2023-04-03T15:13:48;2.38;;;1.23;;
37383;SDS011;23258;49.718;11.082;2023-04-03T15:16:18;1.35;;;0.85;;
37383;SDS011;23258;49.718;11.082;2023-04-03T15:18:48;1.75;;;0.90;;
37383;SDS011;23258;49.718;11.082;2023-04-03T15:21:18;1.13;;;1.00;;
37383;SDS011;23258;49.718;11.082;2023-04-03T15:23:48;1.38;;;1.23;;
37383;SDS011;23258;49.718;11.082;2023-04-03T15:26:17;1.35;;;1.25;;